Time;durP1;ratioP1;P1;durP2;ratioP2;P2;SDS_P1;SDS_P2;PMS_P1;PMS_P2;Temp;Humidity;BMP_temperature;BMP_pressure;BME280_temperature;BME280_humidity;BME280_pressure;Samples;Min_cycle;Max_cycle;Signal;HPM_P1;HPM_P2
2023/02/05 00:02:06;;;;;;;1.45;1.05;;;9.30;87.60;;;;;;5026200;28;20045;-70
2023/02/05 00:04:32;;;;;;;3.78;1.60;;;9.30;87.50;;;;;;5024457;28;20040;-70
2023/02/05 00:06:58;;;;;;;10.80;3.20;;;9.20;87.50;;;;;;5024411;28;20032;-70
2023/02/05 00:09:23;;;;;;;3.28;1.80;;;9.20;87.60;;;;;;5027308;28;20025;-70
2023/02/05 00:11:49;;;;;;;7.13;2.05;;;9.10;87.70;;;;;;5028105;28;20105;-70
2023/02/05 00:14:14;;;;;;;4.78;1.60;;;9.20;87.70;;;;;;5028609;28;20037;-71
2023/02/05 00:16:40;;;;;;;2.58;1.70;;;9.20;87.80;;;;;;5022219;28;20044;-69
2023/02/05 00:19:05;;;;;;;4.97;2.00;;;9.20;87.70;;;;;;5022273;28;20057;-70
2023/02/05 00:21:31;;;;;;;2.35;1.77;;;9.20;87.80;;;;;;5025105;28;20529;-70
2023/02/05 00:23:57;;;;;;;7.40;2.88;;;9.10;87.80;;;;;;5022928;28;20029;-70
2023/02/05 00:26:22;;;;;;;7.88;2.50;;;9.10;87.90;;;;;;5023769;28;20075;-71
2023/02/05 00:28:48;;;;;;;5.80;2.70;;;9.10;87.90;;;;;;5022161;28;20037;-70
2023/02/05 00:31:17;;;;;;;3.25;2.17;;;9.10;87.90;;;;;;5026872;28;20025;-70
2023/02/05 00:33:43;;;;;;;3.33;2.03;;;9.10;88.60;;;;;;5027477;28;20026;-69
2023/02/05 00:36:09;;;;;;;3.75;1.95;;;9.10;87.90;;;;;;5029271;28;20026;-70
2023/02/05 00:38:35;;;;;;;2.70;1.70;;;9.10;87.80;;;;;;5025731;28;20025;-69
2023/02/05 00:41:02;;;;;;;4.40;1.40;;;9.10;87.80;;;;;;5026316;28;20638;-70
2023/02/05 00:43:27;;;;;;;4.53;1.65;;;9.20;87.90;;;;;;5025019;28;20029;-72
2023/02/05 00:45:53;;;;;;;3.17;1.42;;;9.20;88.00;;;;;;5025120;28;20032;-70
2023/02/05 00:48:19;;;;;;;4.55;2.55;;;9.10;88.00;;;;;;5021112;28;20167;-70
2023/02/05 00:50:47;;;;;;;2.38;1.55;;;9.20;88.10;;;;;;5027764;28;20024;-69
2023/02/05 00:53:13;;;;;;;4.10;2.15;;;9.10;88.10;;;;;;5025948;28;21280;-70
2023/02/05 00:55:38;;;;;;;4.70;2.20;;;9.10;88.10;;;;;;5026236;28;20144;-71
2023/02/05 00:58:04;;;;;;;3.60;1.65;;;9.20;88.20;;;;;;5024873;28;20025;-70
2023/02/05 01:00:29;;;;;;;3.15;2.00;;;9.20;88.20;;;;;;5026564;28;20029;-70
2023/02/05 01:02:55;;;;;;;3.28;1.95;;;9.20;88.20;;;;;;5025613;28;20021;-70
2023/02/05 01:05:20;;;;;;;2.67;1.42;;;9.20;88.20;;;;;;5025336;28;20502;-71
2023/02/05 01:07:46;;;;;;;6.18;1.80;;;9.20;88.10;;;;;;5025335;28;20033;-70
2023/02/05 01:10:12;;;;;;;3.25;1.75;;;9.20;88.20;;;;;;5026226;28;20025;-70
2023/02/05 01:12:37;;;;;;;2.60;1.48;;;9.20;88.20;;;;;;5026461;28;20048;-70
2023/02/05 01:15:05;;;;;;;4.47;2.38;;;9.20;88.20;;;;;;5025788;28;20029;-70
2023/02/05 01:17:31;;;;;;;4.82;1.50;;;9.20;88.20;;;;;;5024635;28;20025;-70
2023/02/05 01:19:57;;;;;;;2.88;1.42;;;9.20;88.30;;;;;;5026187;28;20838;-70
2023/02/05 01:22:22;;;;;;;3.42;1.70;;;9.30;88.40;;;;;;5030028;28;20022;-69
2023/02/05 01:24:48;;;;;;;4.05;1.38;;;9.30;88.40;;;;;;5030015;28;20036;-69
2023/02/05 01:27:13;;;;;;;3.50;1.40;;;9.30;88.40;;;;;;5029107;28;20164;-70
2023/02/05 01:29:39;;;;;;;3.95;1.80;;;9.30;88.40;;;;;;5029680;28;20029;-70
2023/02/05 01:32:05;;;;;;;4.18;2.08;;;9.30;88.40;;;;;;5029999;28;20557;-69
2023/02/05 01:34:30;;;;;;;4.38;2.22;;;9.40;88.40;;;;;;5030490;28;20678;-69
2023/02/05 01:36:56;;;;;;;2.83;1.50;;;9.40;88.30;;;;;;5029812;28;20136;-69
2023/02/05 01:39:21;;;;;;;6.20;2.42;;;9.40;88.20;;;;;;5028807;28;20636;-69
2023/02/05 01:41:47;;;;;;;6.13;2.60;;;9.40;88.30;;;;;;5028557;28;20044;-69
2023/02/05 01:44:21;;;;;;;2.95;1.83;;;9.40;88.90;;;;;;5027887;28;20045;-69
2023/02/05 01:46:47;;;;;;;4.35;2.03;;;9.40;88.40;;;;;;5027572;28;20038;-70
2023/02/05 01:49:39;;;;;;;4.40;2.25;;;9.40;88.50;;;;;;5030411;28;20064;-69
2023/02/05 01:52:12;;;;;;;4.90;2.13;;;9.40;88.60;;;;;;5027851;28;20029;-69
2023/02/05 01:54:42;;;;;;;4.60;2.15;;;9.40;88.60;;;;;;5028793;28;20025;-69
2023/02/05 01:57:13;;;;;;;6.35;2.92;;;9.40;88.80;;;;;;5029311;28;20025;-69
2023/02/05 01:59:40;;;;;;;5.13;2.25;;;9.40;88.70;;;;;;5029706;28;20372;-68
2023/02/05 02:02:06;;;;;;;4.55;2.30;;;9.40;88.60;;;;;;5030225;28;20506;-68
2023/02/05 02:04:43;;;;;;;4.07;2.20;;;9.50;88.70;;;;;;5028707;28;20038;-68
2023/02/05 02:07:18;;;;;;;3.13;1.55;;;9.50;88.70;;;;;;5027647;28;20056;-68
2023/02/05 02:09:46;;;;;;;4.13;2.03;;;9.50;88.60;;;;;;5029392;28;20033;-67
2023/02/05 02:12:15;;;;;;;4.75;1.85;;;9.50;88.60;;;;;;5029451;28;20048;-67
2023/02/05 02:14:46;;;;;;;3.28;1.77;;;9.50;88.60;;;;;;5027294;28;20029;-68
2023/02/05 02:17:14;;;;;;;4.22;1.48;;;9.50;88.60;;;;;;5027206;28;20033;-68
2023/02/05 02:19:56;;;;;;;4.38;1.85;;;9.60;88.70;;;;;;5029406;28;20044;-68
2023/02/05 02:22:46;;;;;;;2.03;1.35;;;9.50;88.70;;;;;;5030126;28;20876;-68
2023/02/05 02:25:46;;;;;;;4.65;2.05;;;9.60;88.90;;;;;;5026620;28;20116;-67
2023/02/05 02:28:53;;;;;;;4.30;2.05;;;9.60;88.80;;;;;;5028443;28;20037;-68
2023/02/05 02:31:39;;;;;;;4.40;1.63;;;9.50;88.70;;;;;;5024023;28;20041;-68
2023/02/05 02:34:16;;;;;;;9.15;3.08;;;9.50;88.90;;;;;;5028317;28;20048;-69
2023/02/05 02:37:04;;;;;;;3.00;1.33;;;9.50;89.00;;;;;;5028342;28;21213;-67
2023/02/05 02:39:43;;;;;;;3.90;1.98;;;9.50;89.10;;;;;;5029116;28;20445;-68
2023/02/05 02:42:27;;;;;;;4.80;2.05;;;9.40;89.10;;;;;;5028944;28;20014;-68
2023/02/05 02:44:58;;;;;;;4.93;2.33;;;9.30;89.20;;;;;;5028106;28;20137;-69
2023/02/05 02:47:30;;;;;;;5.22;2.42;;;9.30;89.30;;;;;;5027896;28;20060;-69
2023/02/05 02:49:59;;;;;;;5.63;2.55;;;9.40;89.50;;;;;;5023501;28;20033;-68
2023/02/05 02:52:28;;;;;;;5.18;2.67;;;9.40;89.50;;;;;;5029788;28;20049;-68
2023/02/05 02:54:59;;;;;;;4.90;2.30;;;9.40;89.40;;;;;;5029602;28;20484;-69
2023/02/05 02:57:28;;;;;;;3.88;2.15;;;9.30;89.40;;;;;;5026892;28;20033;-68
2023/02/05 02:59:58;;;;;;;4.03;2.25;;;9.40;89.40;;;;;;5026884;28;20502;-68
2023/02/05 03:02:27;;;;;;;3.85;2.42;;;9.40;89.40;;;;;;5025770;28;20480;-70
2023/02/05 03:05:00;;;;;;;5.95;2.90;;;9.40;89.40;;;;;;5023541;28;20032;-69
2023/02/05 03:07:35;;;;;;;5.07;2.50;;;9.30;89.50;;;;;;5027730;28;20040;-69
2023/02/05 03:10:07;;;;;;;7.00;3.15;;;9.30;89.50;;;;;;5030214;28;20056;-69
2023/02/05 03:12:33;;;;;;;5.50;2.42;;;9.30;89.50;;;;;;5028888;28;20101;-69
2023/02/05 03:14:59;;;;;;;4.63;2.40;;;9.30;89.50;;;;;;5030752;28;20441;-69
2023/02/05 03:17:26;;;;;;;5.85;2.63;;;9.30;90.00;;;;;;5029584;28;20041;-70
2023/02/05 03:20:15;;;;;;;6.10;2.20;;;9.40;89.50;;;;;;5031116;28;20029;-68
2023/02/05 03:22:40;;;;;;;5.80;3.30;;;9.40;89.50;;;;;;5030567;28;20503;-68
2023/02/05 03:25:07;;;;;;;3.92;2.17;;;9.30;89.40;;;;;;5030793;28;20064;-68
2023/02/05 03:27:33;;;;;;;4.13;2.10;;;9.30;89.40;;;;;;5029997;28;20403;-68
2023/02/05 03:29:59;;;;;;;4.80;2.40;;;9.30;89.50;;;;;;5030303;28;20022;-68
2023/02/05 03:32:54;;;;;;;4.30;2.08;;;9.30;89.50;;;;;;5030439;28;20054;-68
2023/02/05 03:35:38;;;;;;;6.35;2.60;;;9.30;89.50;;;;;;5028861;28;20041;-68
2023/02/05 03:38:22;;;;;;;4.63;2.40;;;9.30;89.60;;;;;;5023179;28;20100;-67
2023/02/05 03:40:58;;;;;;;4.30;2.25;;;9.30;89.60;;;;;;5029570;28;20472;-68
2023/02/05 03:43:45;;;;;;;5.82;2.10;;;9.30;89.60;;;;;;5028981;28;20025;-68
2023/02/05 03:46:29;;;;;;;4.47;2.20;;;9.30;89.60;;;;;;5030184;28;20017;-68
2023/02/05 03:49:12;;;;;;;4.50;2.20;;;9.20;89.60;;;;;;5028825;28;20476;-68
2023/02/05 03:51:40;;;;;;;5.20;2.55;;;9.20;89.80;;;;;;5028796;28;20028;-68
2023/02/05 03:54:21;;;;;;;4.88;1.92;;;9.20;89.80;;;;;;5029414;28;20096;-68
2023/02/05 03:57:04;;;;;;;4.90;2.45;;;9.20;89.80;;;;;;5028558;28;20021;-69
2023/02/05 03:59:32;;;;;;;3.35;1.80;;;9.20;89.80;;;;;;5029866;28;20029;-68
2023/02/05 04:01:58;;;;;;;5.18;2.50;;;9.10;89.70;;;;;;5029932;28;20036;-68
2023/02/05 04:04:24;;;;;;;4.45;2.40;;;9.20;89.90;;;;;;5029699;28;20104;-68
2023/02/05 04:06:51;;;;;;;4.15;1.92;;;9.20;89.80;;;;;;5029263;28;20029;-69
2023/02/05 04:09:17;;;;;;;4.90;2.20;;;9.20;90.20;;;;;;5029014;28;20064;-69
2023/02/05 04:11:43;;;;;;;4.50;2.30;;;9.20;89.80;;;;;;5028325;28;20060;-70
2023/02/05 04:14:08;;;;;;;3.28;1.77;;;9.20;89.80;;;;;;5029823;28;20435;-69
2023/02/05 04:16:34;;;;;;;4.05;2.25;;;9.20;89.70;;;;;;5029607;28;20033;-69
2023/02/05 04:18:59;;;;;;;4.60;2.70;;;9.20;89.70;;;;;;5029572;28;20041;-69
2023/02/05 04:21:25;;;;;;;4.90;2.47;;;9.20;89.60;;;;;;5029258;28;20025;-69
2023/02/05 04:23:51;;;;;;;3.67;1.90;;;9.20;89.60;;;;;;5028758;28;20123;-68
2023/02/05 04:26:16;;;;;;;3.67;1.70;;;9.10;89.60;;;;;;5028429;28;20025;-69
2023/02/05 04:28:42;;;;;;;3.15;1.95;;;9.20;89.70;;;;;;5029276;28;20472;-69
2023/02/05 04:31:10;;;;;;;3.30;1.60;;;9.10;89.70;;;;;;5028131;28;20110;-68
2023/02/05 04:33:35;;;;;;;3.63;1.88;;;9.10;89.70;;;;;;5028705;28;20021;-68
2023/02/05 04:36:01;;;;;;;5.88;2.97;;;9.20;89.80;;;;;;5029079;28;20365;-68
2023/02/05 04:38:27;;;;;;;4.13;1.63;;;9.10;89.70;;;;;;5028567;28;20090;-68
2023/02/05 04:40:52;;;;;;;3.53;1.98;;;9.10;89.70;;;;;;5028359;28;20461;-68
2023/02/05 04:43:18;;;;;;;3.90;1.92;;;9.10;89.70;;;;;;5028818;28;20026;-68
2023/02/05 04:45:43;;;;;;;4.40;2.45;;;9.10;89.70;;;;;;5029120;28;20080;-69
2023/02/05 04:48:10;;;;;;;2.95;1.70;;;9.10;89.70;;;;;;5028978;28;20025;-69
2023/02/05 04:50:37;;;;;;;2.50;1.70;;;9.10;89.70;;;;;;5029186;28;20037;-68
2023/02/05 04:53:03;;;;;;;2.80;2.00;;;9.10;89.60;;;;;;5027548;28;20515;-69
2023/02/05 04:55:29;;;;;;;3.75;2.03;;;9.10;89.60;;;;;;5028847;28;20021;-69
2023/02/05 04:57:54;;;;;;;3.65;1.70;;;9.00;89.70;;;;;;5029078;28;20113;-68
2023/02/05 05:00:20;;;;;;;2.97;1.75;;;9.10;89.80;;;;;;5028543;28;20100;-68
2023/02/05 05:02:46;;;;;;;4.28;1.80;;;9.00;89.80;;;;;;5026945;28;20029;-68
2023/02/05 05:05:11;;;;;;;3.38;1.73;;;9.00;89.80;;;;;;5021866;28;20026;-68
2023/02/05 05:07:37;;;;;;;4.13;1.80;;;9.00;89.90;;;;;;5028936;28;20032;-67
2023/02/05 05:10:06;;;;;;;3.60;1.80;;;9.10;89.80;;;;;;5028938;28;20032;-68
2023/02/05 05:12:32;;;;;;;4.65;1.63;;;9.10;89.70;;;;;;5029241;28;20037;-68
2023/02/05 05:14:57;;;;;;;2.75;1.75;;;9.10;89.70;;;;;;5028651;28;20017;-67
2023/02/05 05:17:23;;;;;;;4.45;2.40;;;9.00;89.70;;;;;;5027101;28;20037;-69
2023/02/05 05:19:48;;;;;;;4.32;2.17;;;9.00;89.80;;;;;;5028776;28;20017;-68
2023/02/05 05:22:14;;;;;;;4.50;2.05;;;9.00;89.90;;;;;;5029020;28;20431;-69
2023/02/05 05:24:40;;;;;;;4.07;2.38;;;9.00;89.80;;;;;;5027576;28;20092;-69
2023/02/05 05:27:05;;;;;;;3.67;2.00;;;9.00;89.80;;;;;;5028937;28;20026;-69
2023/02/05 05:29:31;;;;;;;2.88;1.50;;;9.00;89.80;;;;;;5028517;28;20018;-68
2023/02/05 05:31:56;;;;;;;4.47;2.03;;;9.00;90.00;;;;;;5028688;28;20119;-68
2023/02/05 05:34:22;;;;;;;4.90;2.03;;;9.00;90.00;;;;;;5029099;28;20018;-68
2023/02/05 05:36:47;;;;;;;4.88;2.70;;;8.90;90.00;;;;;;5028763;28;20634;-69
2023/02/05 05:44:42;;;;;;;3.85;2.10;;;8.90;90.10;;;;;;5028292;28;20166;-68
2023/02/05 05:47:08;;;;;;;2.22;1.42;;;8.80;90.10;;;;;;5028149;28;20112;-68
2023/02/05 05:49:34;;;;;;;2.72;1.92;;;8.90;90.20;;;;;;5028460;28;20033;-70
2023/02/05 05:51:59;;;;;;;3.20;1.70;;;8.90;90.20;;;;;;5028716;28;20030;-70
2023/02/05 05:54:25;;;;;;;5.45;2.53;;;8.80;90.10;;;;;;5028757;28;20014;-70
2023/02/05 05:56:50;;;;;;;4.88;2.53;;;8.80;90.20;;;;;;5027954;28;20036;-70
2023/02/05 05:59:16;;;;;;;3.40;1.80;;;8.80;90.20;;;;;;5028693;28;20032;-70
2023/02/05 06:01:42;;;;;;;4.13;2.10;;;8.80;90.20;;;;;;5028501;28;20116;-70
2023/02/05 06:04:07;;;;;;;7.05;2.85;;;8.70;90.20;;;;;;5027653;28;20018;-70
2023/02/05 06:06:33;;;;;;;3.70;2.30;;;8.70;90.20;;;;;;5028651;28;20044;-70
2023/02/05 06:08:58;;;;;;;4.10;2.22;;;8.70;90.20;;;;;;5031032;28;20026;-71
2023/02/05 06:11:24;;;;;;;5.40;2.30;;;8.60;90.30;;;;;;5031975;28;20029;-70
2023/02/05 06:13:49;;;;;;;2.90;1.67;;;8.60;90.30;;;;;;5032344;28;20025;-69
2023/02/05 06:16:15;;;;;;;5.63;2.47;;;8.60;90.30;;;;;;5031884;28;20087;-69
2023/02/05 06:18:40;;;;;;;3.38;1.77;;;8.60;90.40;;;;;;5029668;28;20045;-69
2023/02/05 06:21:06;;;;;;;2.97;1.85;;;8.60;90.30;;;;;;5028427;28;20033;-69
2023/02/05 06:23:32;;;;;;;2.83;1.77;;;8.60;90.30;;;;;;5032018;28;20561;-69
2023/02/05 06:25:58;;;;;;;4.05;1.63;;;8.50;90.40;;;;;;5030589;28;20049;-69
2023/02/05 06:28:24;;;;;;;3.20;1.33;;;8.40;90.50;;;;;;5032079;28;20053;-69
2023/02/05 06:30:49;;;;;;;1.85;1.40;;;8.30;90.60;;;;;;5031380;28;20029;-70
2023/02/05 06:33:15;;;;;;;1.38;0.95;;;8.20;90.60;;;;;;5031567;28;20538;-69
2023/02/05 06:35:41;;;;;;;1.60;0.80;;;8.20;90.70;;;;;;5031655;28;20029;-69
2023/02/05 06:38:07;;;;;;;2.17;0.63;;;8.10;90.70;;;;;;5031930;28;20025;-69
2023/02/05 06:40:32;;;;;;;3.55;1.00;;;8.10;90.70;;;;;;5031608;28;20052;-69
2023/02/05 06:42:58;;;;;;;0.50;0.50;;;8.00;90.70;;;;;;5031584;28;20060;-69
2023/02/05 06:45:23;;;;;;;0.93;0.70;;;7.90;90.80;;;;;;5031603;28;20141;-69
2023/02/05 06:47:51;;;;;;;1.20;0.70;;;7.90;90.70;;;;;;5031268;28;20540;-70
2023/02/05 06:50:17;;;;;;;1.25;0.60;;;7.80;90.70;;;;;;5031272;28;20092;-70
2023/02/05 06:52:42;;;;;;;1.10;0.75;;;7.80;90.80;;;;;;5031429;28;20431;-70
2023/02/05 06:55:08;;;;;;;1.50;0.85;;;7.70;90.80;;;;;;5030967;28;20117;-69
2023/02/05 06:57:33;;;;;;;1.17;0.50;;;7.70;90.80;;;;;;5030930;28;20044;-70
2023/02/05 06:59:59;;;;;;;2.50;0.75;;;7.60;90.80;;;;;;5030662;28;20033;-70
2023/02/05 07:02:25;;;;;;;1.27;0.85;;;7.60;90.80;;;;;;5030967;28;20050;-69
2023/02/05 07:04:50;;;;;;;3.08;1.23;;;7.50;90.80;;;;;;5030711;28;20104;-67
2023/02/05 07:07:16;;;;;;;4.78;0.90;;;7.50;90.80;;;;;;5031297;28;20026;-68
2023/02/05 07:09:42;;;;;;;3.25;0.70;;;7.50;90.80;;;;;;5031137;28;20037;-70
2023/02/05 07:12:08;;;;;;;2.65;0.82;;;7.50;90.80;;;;;;5030899;28;20120;-69
2023/02/05 07:14:40;;;;;;;2.17;0.70;;;7.40;90.80;;;;;;5031357;28;20115;-69
2023/02/05 07:17:06;;;;;;;4.00;0.90;;;7.40;90.80;;;;;;5031029;28;20029;-69
2023/02/05 07:19:33;;;;;;;1.75;0.80;;;7.40;90.90;;;;;;5031158;28;20484;-69
2023/02/05 07:21:59;;;;;;;5.57;1.15;;;7.30;90.80;;;;;;5026300;28;20483;-68
2023/02/05 07:24:24;;;;;;;1.58;0.80;;;7.30;90.90;;;;;;5030935;28;20025;-69
2023/02/05 07:26:50;;;;;;;0.82;0.80;;;7.30;90.90;;;;;;5030690;28;20049;-69
2023/02/05 07:29:16;;;;;;;1.77;0.73;;;7.30;90.90;;;;;;5030857;28;20037;-68
2023/02/05 07:31:41;;;;;;;4.13;0.85;;;7.40;90.90;;;;;;5031066;28;20021;-69
2023/02/05 07:34:07;;;;;;;2.15;0.60;;;7.30;90.90;;;;;;5031229;28;20018;-69
2023/02/05 07:36:33;;;;;;;2.10;0.65;;;7.40;90.90;;;;;;5030515;28;20452;-69
2023/02/05 07:38:58;;;;;;;0.73;0.60;;;7.40;90.90;;;;;;5029670;28;20021;-68
2023/02/05 07:41:25;;;;;;;1.13;0.60;;;7.40;90.90;;;;;;5026728;28;20034;-70
2023/02/05 07:43:52;;;;;;;0.60;0.60;;;7.40;90.80;;;;;;5028746;28;20029;-71
2023/02/05 07:46:18;;;;;;;1.27;0.80;;;7.40;90.80;;;;;;5030552;28;20037;-70
2023/02/05 07:48:44;;;;;;;5.45;0.80;;;7.40;90.80;;;;;;5027257;28;20026;-70
2023/02/05 07:51:16;;;;;;;2.70;0.70;;;7.50;90.80;;;;;;5020595;28;20076;-71
2023/02/05 07:53:41;;;;;;;1.90;0.88;;;7.50;90.80;;;;;;5028389;28;20373;-71
2023/02/05 07:56:07;;;;;;;3.67;0.98;;;7.50;90.70;;;;;;5029737;28;20083;-70
2023/02/05 07:58:32;;;;;;;2.50;0.88;;;7.50;90.70;;;;;;5024956;28;20029;-70
2023/02/05 08:01:04;;;;;;;2.58;1.00;;;7.50;90.60;;;;;;5024333;28;20052;-71
2023/02/05 08:03:30;;;;;;;9.77;1.60;;;7.50;90.60;;;;;;5029520;28;20108;-71
2023/02/05 08:05:56;;;;;;;1.98;0.60;;;7.50;90.60;;;;;;5029075;28;20123;-71
2023/02/05 08:08:22;;;;;;;2.03;0.70;;;7.50;90.60;;;;;;5026045;28;20037;-71
2023/02/05 08:11:01;;;;;;;3.60;0.77;;;7.50;90.70;;;;;;5027897;28;20484;-71
2023/02/05 08:13:26;;;;;;;1.38;1.00;;;7.50;90.70;;;;;;5028399;28;20022;-72
2023/02/05 08:15:52;;;;;;;5.25;1.13;;;7.50;90.70;;;;;;5027978;28;20044;-72
2023/02/05 08:18:18;;;;;;;3.55;0.70;;;7.50;90.80;;;;;;5028730;28;20084;-70
2023/02/05 08:20:44;;;;;;;1.75;0.65;;;7.50;90.80;;;;;;5024209;28;20018;-72
2023/02/05 08:23:09;;;;;;;2.30;1.00;;;7.50;90.80;;;;;;5028546;28;20074;-72
2023/02/05 08:25:36;;;;;;;1.80;0.70;;;7.40;90.80;;;;;;5029822;28;20013;-72
2023/02/05 08:28:02;;;;;;;4.10;1.17;;;7.50;90.80;;;;;;5028029;28;20075;-72
2023/02/05 08:30:27;;;;;;;5.78;0.80;;;7.50;90.80;;;;;;5019717;28;20113;-72
2023/02/05 08:32:53;;;;;;;1.42;0.98;;;7.50;90.80;;;;;;5028386;28;20365;-72
2023/02/05 08:35:18;;;;;;;3.03;1.10;;;7.50;90.80;;;;;;5027776;28;20559;-72
2023/02/05 08:37:44;;;;;;;3.38;1.10;;;7.50;90.80;;;;;;5027501;28;20388;-72
2023/02/05 08:40:10;;;;;;;3.95;1.00;;;7.50;90.90;;;;;;5028087;28;20033;-71
2023/02/05 08:42:35;;;;;;;4.28;1.05;;;7.60;90.80;;;;;;5025521;28;20022;-72
2023/02/05 08:45:02;;;;;;;4.07;0.85;;;7.50;90.80;;;;;;5029259;28;20163;-72
2023/02/05 08:47:27;;;;;;;5.35;0.93;;;7.50;90.90;;;;;;5024155;28;20076;-71
2023/02/05 08:49:53;;;;;;;4.60;1.45;;;7.50;91.00;;;;;;5043589;28;20021;-72
2023/02/05 08:52:19;;;;;;;4.97;1.10;;;7.50;91.00;;;;;;5027314;28;20036;-72
2023/02/05 08:54:45;;;;;;;2.60;1.10;;;7.50;91.10;;;;;;5027150;28;20488;-71
2023/02/05 08:57:11;;;;;;;1.77;1.00;;;7.50;91.10;;;;;;5024188;28;20055;-71
2023/02/05 08:59:36;;;;;;;2.80;0.90;;;7.60;91.10;;;;;;5028627;28;20493;-71
2023/02/05 09:02:02;;;;;;;3.83;0.75;;;7.70;91.10;;;;;;5028931;28;20670;-71
2023/02/05 09:04:28;;;;;;;1.85;0.73;;;7.70;91.00;;;;;;5029100;28;20021;-71
2023/02/05 09:06:54;;;;;;;2.03;1.05;;;7.70;91.00;;;;;;5025455;28;20034;-71
2023/02/05 09:09:19;;;;;;;1.55;0.85;;;7.70;91.00;;;;;;5024479;28;20072;-71
2023/02/05 09:11:46;;;;;;;1.80;0.82;;;7.80;91.00;;;;;;5025283;28;20018;-70
2023/02/05 09:14:12;;;;;;;3.97;0.80;;;7.80;91.10;;;;;;5025211;28;20147;-72
2023/02/05 09:16:38;;;;;;;18.90;1.60;;;7.80;91.10;;;;;;5025535;28;20025;-72
2023/02/05 09:19:05;;;;;;;2.80;1.00;;;7.80;91.10;;;;;;5026091;28;20108;-70
2023/02/05 09:21:30;;;;;;;3.55;1.17;;;7.90;91.10;;;;;;5027108;28;20514;-71
2023/02/05 09:23:56;;;;;;;6.22;1.33;;;7.90;91.00;;;;;;5026379;28;20030;-71
2023/02/05 09:26:23;;;;;;;7.15;1.55;;;7.90;90.90;;;;;;5025446;28;20480;-71
2023/02/05 09:28:48;;;;;;;7.90;1.25;;;8.00;90.90;;;;;;5025700;28;20484;-72
2023/02/05 09:31:17;;;;;;;8.02;1.60;;;8.00;90.80;;;;;;5025149;28;20022;-72
2023/02/05 09:33:43;;;;;;;3.53;1.20;;;8.00;90.90;;;;;;5025939;28;20021;-71
2023/02/05 09:36:16;;;;;;;8.15;1.65;;;8.00;90.90;;;;;;5022208;28;20039;-71
2023/02/05 09:38:42;;;;;;;3.72;1.15;;;8.00;90.80;;;;;;5022630;28;20438;-71
2023/02/05 09:41:23;;;;;;;5.63;1.52;;;8.10;90.80;;;;;;5023986;28;20022;-71
2023/02/05 09:43:58;;;;;;;5.60;1.55;;;8.10;90.70;;;;;;5042293;28;20026;-71
2023/02/05 09:46:54;;;;;;;7.80;1.38;;;8.10;90.80;;;;;;5027908;28;20526;-70
2023/02/05 09:49:34;;;;;;;5.93;1.65;;;8.10;90.60;;;;;;5029100;28;20121;-70
2023/02/05 09:52:11;;;;;;;5.28;1.88;;;8.10;90.60;;;;;;5027886;28;20361;-71
2023/02/05 09:54:42;;;;;;;8.23;1.63;;;8.10;90.60;;;;;;5027443;28;20025;-70
2023/02/05 09:57:15;;;;;;;6.03;1.63;;;8.10;90.60;;;;;;5026592;28;20506;-71
2023/02/05 09:59:44;;;;;;;7.53;1.27;;;8.10;90.60;;;;;;5028029;28;20052;-71
2023/02/05 10:02:39;;;;;;;8.40;1.27;;;8.10;90.50;;;;;;5027786;28;20428;-71
2023/02/05 10:05:14;;;;;;;5.10;1.52;;;8.10;90.50;;;;;;5025745;28;20103;-70
2023/02/05 10:07:52;;;;;;;8.38;1.50;;;8.10;90.40;;;;;;5024197;28;20029;-70
2023/02/05 10:10:27;;;;;;;5.90;1.60;;;8.10;90.30;;;;;;5025504;28;20067;-70
2023/02/05 10:13:20;;;;;;;5.13;1.00;;;8.10;90.20;;;;;;5026416;28;20262;-71
2023/02/05 10:16:10;;;;;;;9.63;1.80;;;8.10;90.10;;;;;;5028489;28;20022;-71
2023/02/05 10:18:57;;;;;;;8.90;1.63;;;8.10;90.00;;;;;;5026987;28;20041;-70
2023/02/05 10:21:22;;;;;;;5.55;0.90;;;8.20;89.80;;;;;;5029368;28;20026;-70
2023/02/05 10:24:06;;;;;;;4.00;1.20;;;8.20;89.50;;;;;;5025917;28;20037;-71
2023/02/05 10:26:52;;;;;;;10.68;2.30;;;8.30;89.30;;;;;;5027337;28;20104;-71
2023/02/05 10:29:24;;;;;;;5.68;1.70;;;8.30;88.80;;;;;;5027035;28;20033;-70
2023/02/05 10:32:22;;;;;;;8.73;2.42;;;8.40;88.40;;;;;;5049274;28;20126;-70
2023/02/05 10:35:26;;;;;;;4.78;1.27;;;8.50;88.00;;;;;;5022998;28;20053;-70
2023/02/05 10:37:54;;;;;;;5.75;1.33;;;8.50;87.60;;;;;;5022066;28;20034;-71
2023/02/05 10:40:29;;;;;;;5.63;1.15;;;8.60;87.70;;;;;;5020563;28;20030;-70
2023/02/05 10:43:23;;;;;;;7.72;1.98;;;8.60;87.70;;;;;;5024604;28;20191;-70
2023/02/05 10:45:51;;;;;;;4.70;1.58;;;8.60;87.50;;;;;;5024953;28;20055;-70
2023/02/05 10:48:41;;;;;;;11.45;1.55;;;8.60;87.50;;;;;;5027972;28;20033;-71
2023/02/05 10:51:12;;;;;;;8.32;1.45;;;8.60;87.40;;;;;;5026970;28;20025;-70
2023/02/05 10:53:38;;;;;;;6.80;1.80;;;8.60;87.90;;;;;;5027759;28;20294;-70
2023/02/05 10:56:05;;;;;;;5.57;1.10;;;8.50;87.40;;;;;;5026440;28;20021;-70
2023/02/05 10:58:59;;;;;;;2.92;1.08;;;8.60;87.60;;;;;;5027774;28;20547;-70
2023/02/05 11:01:34;;;;;;;4.78;1.45;;;8.50;87.50;;;;;;5042669;28;20400;-71
2023/02/05 11:04:04;;;;;;;5.78;1.55;;;8.50;87.30;;;;;;5026718;28;20030;-70
2023/02/05 11:06:36;;;;;;;3.53;1.67;;;8.50;87.40;;;;;;5023944;28;20040;-70
2023/02/05 11:09:20;;;;;;;5.60;1.58;;;8.60;87.40;;;;;;5027682;28;20029;-71
2023/02/05 11:11:54;;;;;;;5.15;1.17;;;8.60;87.40;;;;;;5026374;28;20032;-70
2023/02/05 11:14:24;;;;;;;8.38;1.88;;;8.60;87.40;;;;;;5027126;28;20026;-70
2023/02/05 11:16:52;;;;;;;5.85;1.70;;;8.60;87.00;;;;;;5023392;28;20023;-70
2023/02/05 11:19:25;;;;;;;11.95;1.40;;;8.60;87.00;;;;;;5027443;28;20079;-71
2023/02/05 11:21:59;;;;;;;8.90;2.10;;;8.70;87.00;;;;;;5043158;28;20715;-70
2023/02/05 11:24:25;;;;;;;6.70;1.40;;;8.70;86.70;;;;;;5027281;28;20040;-70
2023/02/05 11:27:27;;;;;;;5.63;1.50;;;8.70;86.70;;;;;;5025219;28;20786;-70
2023/02/05 11:29:59;;;;;;;10.68;2.35;;;8.80;86.60;;;;;;5020825;28;20029;-71
2023/02/05 11:32:35;;;;;;;7.90;1.75;;;8.80;86.50;;;;;;5026433;28;20384;-71
2023/02/05 11:35:18;;;;;;;6.40;1.70;;;8.80;86.30;;;;;;5027575;28;20025;-71
2023/02/05 11:37:46;;;;;;;10.07;1.90;;;8.80;86.20;;;;;;5024093;28;20504;-71
2023/02/05 11:40:27;;;;;;;6.03;1.33;;;8.80;85.70;;;;;;5024893;28;20726;-71
2023/02/05 11:43:19;;;;;;;6.50;1.70;;;8.80;85.60;;;;;;5027472;28;20109;-71
2023/02/05 11:45:49;;;;;;;6.93;1.50;;;8.90;85.40;;;;;;5023589;28;20073;-71
2023/02/05 11:48:30;;;;;;;5.97;1.20;;;8.90;85.10;;;;;;5025832;28;20041;-71
2023/02/05 11:50:56;;;;;;;5.78;1.27;;;8.90;84.70;;;;;;5025845;28;21350;-71
2023/02/05 11:53:23;;;;;;;3.92;1.58;;;9.00;85.10;;;;;;5025373;28;20037;-71
2023/02/05 11:55:59;;;;;;;6.88;2.00;;;9.00;84.70;;;;;;5024603;28;20028;-71
2023/02/05 11:58:29;;;;;;;4.60;1.42;;;9.10;84.80;;;;;;5024889;28;20500;-71
2023/02/05 12:00:57;;;;;;;8.57;1.98;;;9.10;84.70;;;;;;5024950;28;20026;-71
2023/02/05 12:03:30;;;;;;;6.20;1.10;;;9.10;84.50;;;;;;5024278;28;20079;-71
2023/02/05 12:06:11;;;;;;;7.53;1.70;;;9.10;84.60;;;;;;5025249;28;20029;-71
2023/02/05 12:08:50;;;;;;;6.22;1.20;;;9.00;84.60;;;;;;5025317;28;20028;-71
2023/02/05 12:11:59;;;;;;;8.73;1.88;;;9.00;84.70;;;;;;5026862;28;20034;-71
2023/02/05 12:14:32;;;;;;;6.22;1.15;;;9.00;84.80;;;;;;5025659;28;20076;-71
2023/02/05 12:17:22;;;;;;;8.55;1.30;;;9.00;84.60;;;;;;5025073;28;20034;-71
2023/02/05 12:19:56;;;;;;;8.27;1.38;;;9.10;84.80;;;;;;5023302;28;20029;-72
2023/02/05 12:22:37;;;;;;;9.40;1.75;;;9.10;84.40;;;;;;5023305;28;20071;-71
2023/02/05 12:25:28;;;;;;;5.47;1.77;;;9.10;84.20;;;;;;5024529;28;20429;-71
2023/02/05 12:28:17;;;;;;;7.20;1.70;;;9.40;83.00;;;;;;5024165;28;20033;-71
2023/02/05 12:30:59;;;;;;;5.13;1.67;;;9.60;81.70;;;;;;5024940;28;20043;-69
2023/02/05 12:33:37;;;;;;;10.68;2.38;;;9.70;81.50;;;;;;5025705;28;20053;-69
2023/02/05 12:36:33;;;;;;;4.97;2.03;;;9.80;80.70;;;;;;5030224;28;20033;-70
2023/02/05 12:39:36;;;;;;;8.68;2.00;;;9.90;80.70;;;;;;5022399;28;20488;-70
2023/02/05 12:42:34;;;;;;;8.15;2.10;;;10.30;80.10;;;;;;5023737;28;20030;-69
2023/02/05 12:45:24;;;;;;;9.95;2.03;;;10.40;79.00;;;;;;5023112;28;20021;-69
2023/02/05 12:48:18;;;;;;;6.32;1.40;;;10.30;78.90;;;;;;5021882;28;20036;-68
2023/02/05 12:50:52;;;;;;;3.72;1.23;;;10.10;79.40;;;;;;5022555;28;20100;-69
2023/02/05 12:53:25;;;;;;;7.68;1.27;;;10.00;79.60;;;;;;5026035;28;20495;-69
2023/02/05 12:56:02;;;;;;;12.05;3.25;;;9.90;80.10;;;;;;5026433;28;20055;-69
2023/02/05 12:58:43;;;;;;;7.07;2.20;;;9.90;79.80;;;;;;5020051;28;20051;-70
2023/02/05 13:01:19;;;;;;;13.73;5.45;;;9.70;79.60;;;;;;5023948;28;20157;-69
2023/02/05 13:03:51;;;;;;;13.02;5.22;;;9.60;79.40;;;;;;5025182;28;20017;-69
2023/02/05 13:06:28;;;;;;;5.10;2.05;;;9.60;79.60;;;;;;5023816;28;20021;-68
2023/02/05 13:09:00;;;;;;;5.53;2.13;;;9.50;79.90;;;;;;5022425;28;20052;-70
2023/02/05 13:11:29;;;;;;;9.88;2.20;;;9.50;80.10;;;;;;5024037;28;20025;-68
2023/02/05 13:14:01;;;;;;;4.43;1.17;;;9.40;79.80;;;;;;5025790;28;20025;-70
2023/02/05 13:17:01;;;;;;;7.07;1.92;;;9.70;79.90;;;;;;5024678;28;20100;-71
2023/02/05 13:19:35;;;;;;;2.95;1.00;;;10.00;78.60;;;;;;5021105;28;20069;-70
2023/02/05 13:30:45;;;;;;;8.32;1.50;;;9.70;76.00;;;;;;5022705;28;20051;-69
2023/02/05 13:33:11;;;;;;;;;;;9.80;76.70;;;;;;5021462;28;20122;-69